Flight Track Log - Related Links

Times and Time Zones

All times are in EDT time to prevent confusion due to time zone crossing. See the UCA4838 flight status page for this flight to view local times or setup timezone preferences in your user account.

Time Position Orientation Groundspeed Altitude Reporting Facility
EDT Latitude Longitude Course Direction KTS MPH feet Rate Location/Type
Mon 06:28:11 PM 42.9333 -78.7333 98° East 132 152 1,300  Level Buffalo TRACON
Mon 06:29:23 PM 42.8833 -78.7500 194° South 188 216 2,700 1,286 Climbing Buffalo TRACON
Mon 06:31:27 PM 42.8872 -78.6111 88° East 196 226 5,500 1,435 Climbing Cleveland Center
Mon 06:32:27 PM 42.8817 -78.5319 95° East 196 226 7,100 1,350 Climbing Cleveland Center
Mon 06:33:00 PM 42.6945 -78.1964 98° East  Level Estimated
Mon 06:33:27 PM 42.8783 -78.4528 93° East 196 226 8,200  Level Cleveland Center
Mon 06:34:27 PM 42.8747 -78.3733 94° East 203 234 9,500 1,350 Climbing Cleveland Center
Mon 06:35:27 PM 42.8689 -78.2886 95° East 203 234 10,900 1,200 Climbing Cleveland Center
Mon 06:36:27 PM 42.8653 -78.2094 94° East 208 239 11,900 1,050 Climbing Cleveland Center
Mon 06:37:27 PM 42.8594 -78.1275 96° East 213 245 13,000 1,050 Climbing Cleveland Center
Mon 06:38:27 PM 42.8533 -78.0428 96° East 219 252 14,000 900 Climbing Cleveland Center
Mon 06:39:27 PM 42.8497 -77.9692 94° East 219 252 14,800 500 Climbing Cleveland Center
Mon 06:40:27 PM 42.8414 -77.8789 97° East 219 252 15,000 100 Climbing Cleveland Center
Mon 06:41:27 PM 42.8369 -77.7800 93° East 241 277 15,000  Level Cleveland Center
Mon 06:42:27 PM 42.8342 -77.6756 92° East 258 297 15,000  Level Cleveland Center
Mon 06:43:27 PM 42.8317 -77.5708 92° East 264 304 15,000  Level Cleveland Center
Mon 06:44:27 PM 42.8308 -77.4661 91° East 270 311 15,000  Level Cleveland Center
Mon 06:46:17 PM 42.8281 -77.2714 91° East 278 320 15,000  Level New York Center
Mon 06:47:18 PM 42.8256 -77.1636 92° East 278 320 15,000  Level New York Center
Mon 06:48:17 PM 42.8228 -77.0617 92° East 278 320 15,000  Level New York Center
Mon 06:49:18 PM 42.8117 -76.9561 98° East 278 320 15,000  Level New York Center
Mon 06:50:18 PM 42.7683 -76.8644 123° Southeast 273 314 15,000  Level New York Center
Mon 06:51:19 PM 42.7256 -76.7672 121° Southeast 289 333 15,000  Level New York Center
Mon 06:51:49 PM 42.7069 -76.7328 126° Southeast 287 330 15,000  Level Boston Center
Mon 06:53:01 PM 42.6572 -76.6161 120° Southeast 287 330 15,000  Level Boston Center
Mon 06:54:01 PM 42.6050 -76.5056 123° Southeast 287 330 15,000  Level Boston Center
Mon 06:55:01 PM 42.5644 -76.4125 121° Southeast 287 330 15,000  Level Boston Center
Mon 06:56:01 PM 42.5217 -76.3197 122° Southeast 287 330 15,000  Level Boston Center
Mon 06:57:01 PM 42.4886 -76.2472 122° Southeast 282 325 15,000  Level Boston Center
Mon 06:58:01 PM 42.4422 -76.1403 120° Southeast 289 333 15,000  Level Boston Center
Mon 06:59:01 PM 42.3972 -76.0447 123° Southeast 294 338 15,000  Level Boston Center
Mon 07:00:01 PM 42.3583 -75.9553 120° Southeast 288 331 15,000  Level Boston Center
Mon 07:01:01 PM 42.3233 -75.8803 122° Southeast 288 331 15,000  Level Boston Center
Mon 07:02:01 PM 42.2725 -75.7681 121° Southeast 288 331 15,000  Level Boston Center
Mon 07:03:01 PM 42.2314 -75.6761 121° Southeast 288 331 15,000  Level Boston Center
Mon 07:04:01 PM 42.1881 -75.5842 122° Southeast 288 331 15,000  Level Boston Center
Mon 07:05:01 PM 42.1447 -75.4897 122° Southeast 283 326 15,000  Level Boston Center
Mon 07:06:01 PM 42.1033 -75.4008 122° Southeast 283 326 15,000  Level Boston Center
Mon 07:07:01 PM 42.0619 -75.3067 121° Southeast 283 326 15,000  Level Boston Center
Mon 07:08:13 PM 42.0247 -75.2097 117° Southeast 283 326 15,000  Level Boston Center
Mon 07:09:13 PM 41.9794 -75.0961 118° Southeast 288 331 15,000  Level Boston Center
Mon 07:10:13 PM 41.9381 -74.9911 118° Southeast 288 331 15,000 -450 Level Boston Center
Mon 07:11:13 PM 41.8789 -74.9328 144° Southeast 282 325 14,100 -1,500 Descending Boston Center
Mon 07:12:13 PM 41.7947 -74.8739 152° Southeast 304 350 12,000 -1,950 Descending Boston Center
Mon 07:13:13 PM 41.7292 -74.8242 150° Southeast 311 358 10,200 -1,900 Descending Boston Center
Mon 07:14:13 PM 41.6511 -74.7683 152° Southeast 301 346 8,200 -1,650 Descending Boston Center
Mon 07:15:13 PM 41.5917 -74.7217 150° Southeast 290 334 6,900 -1,100 Descending Boston Center
Mon 07:16:13 PM 41.5156 -74.6692 153° Southeast 276 318 6,000 -450 Descending Boston Center
Mon 07:17:13 PM 41.4519 -74.6225 151° Southeast 271 312 6,000  Level Boston Center
Mon 07:19:09 PM 41.3167 -74.6333 183° South 257 296 6,000 -99 Level New York TRACON
Mon 07:20:14 PM 41.2500 -74.5667 143° Southeast 267 307 5,700 -450 Descending New York TRACON
Mon 07:21:09 PM 41.2167 -74.5167 132° Southeast 270 311 5,100 -365 Descending New York TRACON
Mon 07:22:09 PM 41.1500 -74.4500 143° Southeast 263 303 5,000 -48 Descending New York TRACON
Mon 07:23:14 PM 41.1000 -74.3667 129° Southeast 262 302 5,000  Level New York TRACON
Mon 07:24:09 PM 41.0500 -74.3167 143° Southeast 256 295 5,000  Level New York TRACON
Mon 07:25:14 PM 40.9833 -74.2333 137° Southeast 264 304 5,000 -432 Level New York TRACON
Mon 07:26:14 PM 40.9500 -74.1833 131° Southeast 255 293 4,100 -700 Descending New York TRACON
Mon 07:27:14 PM 40.9000 -74.1333 143° Southeast 200 230 3,600 -550 Descending New York TRACON
Mon 07:28:14 PM 40.8500 -74.0833 143° Southeast 187 215 3,000 -574 Descending New York TRACON
Mon 07:29:09 PM 40.8167 -74.0833 180° South 180 207 2,500 -650 Descending New York TRACON
Mon 07:30:14 PM 40.7667 -74.1167 207° Southwest 131 151 1,700 -700 Descending New York TRACON
Mon 07:31:09 PM 40.7500 -74.1333 217° Southwest 121 139 1,100 -626 Descending New York TRACON
Mon 07:32:09 PM 40.7167 -74.1500 201° Southwest 114 131 500 -600 Descending New York TRACON
Mon 07:34:00 PM 40.6925 -74.1687 166° South  Level Estimated

Login

Don't have an account? Register now (free) for customized features, flight alerts, and more!